createdAt,value
2023-04-21T00:02:18.573Z,51.73
2023-04-21T00:04:45.920Z,53.07
2023-04-21T00:07:14.701Z,48.37
2023-04-21T00:09:41.525Z,48.43
2023-04-21T00:12:08.163Z,56.77
2023-04-21T00:14:34.651Z,48.57
2023-04-21T00:17:01.040Z,54.83
2023-04-21T00:19:28.923Z,60.57
2023-04-21T00:21:59.037Z,55.43
2023-04-21T00:24:26.119Z,52.00
2023-04-21T00:26:52.885Z,56.80
2023-04-21T00:29:19.592Z,51.30
2023-04-21T00:31:46.543Z,56.67
2023-04-21T00:34:13.033Z,53.83
2023-04-21T00:36:39.508Z,51.40
2023-04-21T00:39:06.202Z,51.00
2023-04-21T00:41:34.135Z,46.57
2023-04-21T00:44:07.340Z,53.97
2023-04-21T00:46:35.320Z,47.60
2023-04-21T00:49:05.041Z,64.30
2023-04-21T00:51:33.166Z,56.90
2023-04-21T00:54:00.593Z,53.37
2023-04-21T00:56:28.928Z,55.40
2023-04-21T00:58:55.520Z,56.70
2023-04-21T01:01:22.690Z,52.57
2023-04-21T01:03:50.604Z,54.47
2023-04-21T01:06:18.083Z,54.10
2023-04-21T01:08:46.457Z,55.37
2023-04-21T01:11:13.746Z,57.27
2023-04-21T01:13:40.805Z,58.53
2023-04-21T01:16:08.286Z,53.63
2023-04-21T01:18:36.446Z,56.43
2023-04-21T01:21:04.340Z,60.40
2023-04-21T01:23:31.112Z,52.53
2023-04-21T01:25:57.863Z,54.20
2023-04-21T01:28:25.646Z,55.67
2023-04-21T01:30:52.951Z,57.33
2023-04-21T01:33:20.669Z,49.67
2023-04-21T01:35:47.495Z,52.10
2023-04-21T01:38:19.516Z,52.27
2023-04-21T01:40:49.326Z,52.90
2023-04-21T01:43:17.856Z,52.60
2023-04-21T01:45:44.820Z,49.30
2023-04-21T01:48:11.624Z,55.07
2023-04-21T01:50:38.309Z,53.20
2023-04-21T01:53:05.030Z,52.67
2023-04-21T01:55:31.791Z,53.27
2023-04-21T01:57:59.384Z,51.70
2023-04-21T02:00:26.737Z,54.63
2023-04-21T02:02:53.709Z,50.83
2023-04-21T02:05:20.794Z,54.97
2023-04-21T02:07:47.446Z,50.87
2023-04-21T02:10:14.013Z,54.77
2023-04-21T02:12:40.866Z,55.17
2023-04-21T02:15:08.015Z,58.30
2023-04-21T02:17:34.849Z,56.17
2023-04-21T02:20:03.981Z,52.07
2023-04-21T02:22:31.552Z,51.90
2023-04-21T02:24:58.109Z,53.50
2023-04-21T02:27:24.711Z,51.57
2023-04-21T02:29:51.631Z,57.17
2023-04-21T02:32:25.422Z,55.97
2023-04-21T02:34:52.856Z,54.27
2023-04-21T02:37:20.019Z,57.17
2023-04-21T02:39:46.588Z,58.23
2023-04-21T02:42:13.250Z,59.43
2023-04-21T02:44:39.927Z,57.70
2023-04-21T02:47:06.606Z,56.23
2023-04-21T02:49:33.140Z,56.90
2023-04-21T02:51:59.726Z,53.33
2023-04-21T02:54:27.335Z,55.57
2023-04-21T02:56:53.881Z,55.43
2023-04-21T02:59:20.657Z,55.67
2023-04-21T03:01:49.171Z,62.43
2023-04-21T03:04:15.814Z,63.83
2023-04-21T03:06:42.572Z,59.00
2023-04-21T03:09:09.356Z,56.57
2023-04-21T03:11:36.527Z,60.60
2023-04-21T03:14:03.061Z,60.60
2023-04-21T03:16:29.689Z,66.33
2023-04-21T03:18:56.324Z,64.83
2023-04-21T03:21:22.998Z,68.70
2023-04-21T03:23:49.409Z,63.90
2023-04-21T03:26:16.468Z,60.57
2023-04-21T03:28:42.944Z,64.27
2023-04-21T03:31:09.362Z,66.73
2023-04-21T03:33:36.049Z,63.03
2023-04-21T03:36:02.478Z,64.90
2023-04-21T03:38:29.197Z,63.97
2023-04-21T03:40:55.860Z,63.63
2023-04-21T03:43:22.337Z,67.90
2023-04-21T03:45:48.783Z,58.23
2023-04-21T03:48:15.297Z,67.73
2023-04-21T03:50:41.771Z,66.20
2023-04-21T03:53:08.163Z,70.33
2023-04-21T03:55:34.607Z,65.23
2023-04-21T03:58:00.991Z,64.97
2023-04-21T04:00:27.615Z,71.13
2023-04-21T04:02:54.215Z,61.57
2023-04-21T04:05:20.838Z,64.60
2023-04-21T04:07:47.382Z,71.67
2023-04-21T04:10:13.923Z,73.33
2023-04-21T04:12:40.419Z,73.33
2023-04-21T04:15:07.734Z,92.03
2023-04-21T04:17:34.357Z,71.67
2023-04-21T04:20:01.878Z,74.10
2023-04-21T04:22:28.365Z,77.40
2023-04-21T04:24:55.630Z,75.37
2023-04-21T04:27:22.159Z,77.13
2023-04-21T04:29:50.224Z,74.47
2023-04-21T04:32:17.599Z,86.13
2023-04-21T04:34:44.118Z,75.50
2023-04-21T04:37:11.352Z,68.43
2023-04-21T04:39:38.155Z,91.90
2023-04-21T04:42:09.142Z,98.00
2023-04-21T04:44:36.370Z,80.63
2023-04-21T04:47:03.151Z,79.80
2023-04-21T04:49:29.735Z,81.77
2023-04-21T04:51:56.585Z,79.07
2023-04-21T04:54:23.169Z,80.27
2023-04-21T04:56:49.632Z,78.80
2023-04-21T04:59:16.219Z,78.00
2023-04-21T05:01:43.306Z,83.63
2023-04-21T05:04:09.922Z,77.43
2023-04-21T05:06:37.225Z,91.93
2023-04-21T05:09:04.880Z,85.23
2023-04-21T05:11:31.385Z,82.43
2023-04-21T05:13:57.781Z,87.37
2023-04-21T05:16:24.395Z,70.00
2023-04-21T05:18:53.758Z,65.33
2023-04-21T05:21:29.374Z,58.33
2023-04-21T05:23:56.547Z,56.67
2023-04-21T05:26:23.405Z,52.17
2023-04-21T05:28:50.056Z,52.77
2023-04-21T05:31:16.524Z,42.43
2023-04-21T05:33:42.984Z,39.77
2023-04-21T05:36:10.395Z,34.53
2023-04-21T05:38:37.381Z,35.03
2023-04-21T05:41:04.502Z,33.87
2023-04-21T05:43:34.502Z,36.43
2023-04-21T05:46:01.812Z,32.30
2023-04-21T05:48:31.106Z,30.70
2023-04-21T05:50:57.622Z,31.47
2023-04-21T05:53:24.031Z,30.97
2023-04-21T05:55:50.792Z,32.47
2023-04-21T05:58:17.204Z,30.60
2023-04-21T06:00:43.603Z,29.17
2023-04-21T06:03:10.359Z,28.63
2023-04-21T06:05:36.983Z,25.17
2023-04-21T06:08:03.650Z,25.67
2023-04-21T06:10:30.935Z,23.50
2023-04-21T06:12:57.981Z,20.25
2023-04-21T06:15:24.493Z,27.15
2023-04-21T06:17:55.280Z,25.02
2023-04-21T06:20:21.774Z,24.50
2023-04-21T06:22:48.287Z,21.73
2023-04-21T06:25:14.706Z,22.23
2023-04-21T06:27:41.132Z,21.67
2023-04-21T06:30:08.327Z,20.35
2023-04-21T06:32:34.800Z,21.10
2023-04-21T06:35:01.197Z,27.25
2023-04-21T06:37:27.669Z,20.08
2023-04-21T06:39:54.492Z,20.63
2023-04-21T06:42:21.080Z,20.13
2023-04-21T06:44:48.941Z,21.20
2023-04-21T06:47:17.086Z,19.88
2023-04-21T06:49:43.635Z,20.75
2023-04-21T06:52:10.028Z,17.40
2023-04-21T06:54:36.544Z,20.92
2023-04-21T06:57:03.036Z,20.92
2023-04-21T06:59:29.545Z,21.40
2023-04-21T07:01:56.245Z,23.67
2023-04-21T07:04:24.540Z,20.10
2023-04-21T07:06:51.088Z,21.20
2023-04-21T07:09:18.129Z,22.05
2023-04-21T07:11:44.897Z,19.40
2023-04-21T07:14:11.264Z,24.75
2023-04-21T07:16:37.923Z,20.52
2023-04-21T07:19:04.440Z,20.35
2023-04-21T07:21:32.077Z,23.65
2023-04-21T07:23:58.976Z,20.35
2023-04-21T07:26:25.586Z,25.80
2023-04-21T07:28:52.826Z,22.27
2023-04-21T07:31:19.722Z,19.85
2023-04-21T07:33:46.216Z,20.98
2023-04-21T07:36:12.857Z,17.13
2023-04-21T07:38:43.187Z,21.35
2023-04-21T07:41:13.928Z,18.45
2023-04-21T07:43:40.722Z,18.80
2023-04-21T07:46:07.632Z,14.80
2023-04-21T07:48:34.571Z,17.23
2023-04-21T07:51:02.192Z,15.80
2023-04-21T07:53:29.069Z,19.52
2023-04-21T07:55:55.841Z,16.67
2023-04-21T07:58:22.337Z,17.42
2023-04-21T08:00:49.217Z,18.40
2023-04-21T08:03:16.212Z,20.98
2023-04-21T08:05:42.737Z,20.73
2023-04-21T08:08:09.361Z,20.52
2023-04-21T08:10:35.964Z,18.45
2023-04-21T08:13:06.154Z,19.15
2023-04-21T08:15:33.898Z,17.17
2023-04-21T08:18:00.455Z,16.15
2023-04-21T08:20:27.025Z,21.83
2023-04-21T08:22:53.484Z,16.40
2023-04-21T08:25:20.244Z,14.65
2023-04-21T08:27:46.679Z,14.38
2023-04-21T08:30:13.540Z,16.25
2023-04-21T08:32:40.226Z,12.40
2023-04-21T08:35:07.246Z,14.68
2023-04-21T08:37:36.576Z,11.90
2023-04-21T08:40:07.102Z,15.25
2023-04-21T08:42:34.693Z,10.68
2023-04-21T08:45:01.107Z,11.23
2023-04-21T08:47:28.897Z,13.48
2023-04-21T08:49:56.942Z,10.23
2023-04-21T08:52:23.355Z,9.63
2023-04-21T08:54:52.825Z,9.75
2023-04-21T08:57:19.535Z,9.68
2023-04-21T08:59:46.203Z,8.60
2023-04-21T09:02:15.965Z,12.02
2023-04-21T09:04:44.841Z,8.98
2023-04-21T09:07:12.174Z,12.75
2023-04-21T09:10:08.172Z,9.85
2023-04-21T09:12:34.611Z,9.40
2023-04-21T09:15:05.404Z,10.60
2023-04-21T09:17:33.570Z,7.88
2023-04-21T09:20:17.944Z,11.05
2023-04-21T09:22:45.301Z,6.95
2023-04-21T09:25:16.608Z,10.20
2023-04-21T09:27:43.110Z,11.10
2023-04-21T09:30:09.936Z,6.47
2023-04-21T09:32:38.200Z,9.48
2023-04-21T09:35:06.484Z,6.57
2023-04-21T09:37:34.560Z,6.90
2023-04-21T09:42:30.847Z,9.48
2023-04-21T09:45:16.502Z,8.27
2023-04-21T09:47:51.314Z,7.15
2023-04-21T09:50:33.382Z,14.63
2023-04-21T09:53:07.244Z,8.77
2023-04-21T09:55:34.607Z,7.75
2023-04-21T09:58:02.611Z,10.65
2023-04-21T10:00:31.115Z,8.10
2023-04-21T10:02:58.728Z,7.97
2023-04-21T10:05:25.953Z,7.95
2023-04-21T10:07:52.789Z,8.60
2023-04-21T10:10:24.264Z,8.32
2023-04-21T10:12:51.702Z,8.15
2023-04-21T10:15:40.874Z,8.40
2023-04-21T10:18:14.522Z,6.97
2023-04-21T10:20:54.230Z,6.90
2023-04-21T10:23:27.749Z,12.63
2023-04-21T10:25:55.407Z,7.80
2023-04-21T10:28:39.580Z,8.80
2023-04-21T10:31:20.083Z,8.18
2023-04-21T10:34:08.324Z,10.20
2023-04-21T10:36:36.158Z,11.35
2023-04-21T10:39:04.157Z,6.78
2023-04-21T10:41:32.216Z,10.93
2023-04-21T10:44:12.137Z,10.63
2023-04-21T10:46:49.100Z,12.63
2023-04-21T10:49:32.268Z,12.30
2023-04-21T10:52:02.579Z,12.20
2023-04-21T10:54:47.815Z,8.02
2023-04-21T10:57:19.659Z,7.78
2023-04-21T10:59:47.310Z,8.93
2023-04-21T11:02:16.664Z,9.52
2023-04-21T11:04:49.548Z,8.95
2023-04-21T11:07:25.504Z,11.68
2023-04-21T11:10:04.134Z,8.45
2023-04-21T11:12:32.710Z,9.85
2023-04-21T11:14:59.378Z,7.43
2023-04-21T11:17:26.475Z,10.70
2023-04-21T11:19:56.657Z,5.40
2023-04-21T11:22:24.184Z,7.82
2023-04-21T11:24:53.849Z,12.48
2023-04-21T11:27:22.312Z,8.45
2023-04-21T11:29:50.518Z,5.40
2023-04-21T11:32:17.398Z,9.93
2023-04-21T11:34:44.230Z,9.15
2023-04-21T11:37:16.257Z,6.80
2023-04-21T11:39:43.849Z,10.77
2023-04-21T11:42:11.779Z,9.05
2023-04-21T11:44:42.084Z,8.70
2023-04-21T11:47:22.312Z,10.07
2023-04-21T11:49:57.016Z,10.25
2023-04-21T11:52:34.525Z,9.35
2023-04-21T11:55:03.575Z,10.95
2023-04-21T11:57:31.284Z,10.90
2023-04-21T12:00:02.158Z,8.50
2023-04-21T12:02:30.583Z,11.15
2023-04-21T12:05:26.845Z,7.80
2023-04-21T12:07:56.162Z,12.50
2023-04-21T12:10:22.655Z,10.73
2023-04-21T12:12:49.270Z,8.43
2023-04-21T12:15:20.500Z,14.50
2023-04-21T12:17:52.645Z,6.95
2023-04-21T12:20:20.651Z,8.65
2023-04-21T12:22:48.148Z,11.77
2023-04-21T12:25:14.869Z,9.13
2023-04-21T12:27:54.392Z,9.43
2023-04-21T12:30:21.337Z,9.75
2023-04-21T12:32:48.227Z,8.98
2023-04-21T12:35:15.038Z,8.90
2023-04-21T12:37:42.027Z,8.68
2023-04-21T12:40:08.980Z,9.32
2023-04-21T12:42:37.795Z,8.95
2023-04-21T12:45:05.667Z,9.73
2023-04-21T12:47:32.293Z,8.55
2023-04-21T12:49:58.812Z,8.10
2023-04-21T12:52:25.390Z,6.95
2023-04-21T12:54:51.920Z,11.82
2023-04-21T12:57:18.796Z,11.73
2023-04-21T12:59:46.556Z,10.70
2023-04-21T13:02:13.308Z,11.73
2023-04-21T13:04:42.163Z,7.22
2023-04-21T13:07:09.176Z,9.00
2023-04-21T13:09:35.627Z,7.28
2023-04-21T13:12:02.217Z,7.10
2023-04-21T13:14:29.203Z,13.65
2023-04-21T13:16:56.011Z,8.95
2023-04-21T13:19:22.567Z,5.20
2023-04-21T13:21:49.027Z,7.45
2023-04-21T13:24:15.608Z,7.45
2023-04-21T13:26:42.070Z,8.70
2023-04-21T13:29:08.974Z,10.15
2023-04-21T13:31:36.740Z,9.52
2023-04-21T13:34:03.464Z,9.77
2023-04-21T13:36:30.048Z,8.30
2023-04-21T13:38:56.640Z,10.80
2023-04-21T13:41:23.143Z,16.25
2023-04-21T13:43:50.127Z,10.02
2023-04-21T13:46:16.687Z,8.07
2023-04-21T13:48:44.884Z,11.85
2023-04-21T13:51:11.276Z,8.98
2023-04-21T13:53:37.715Z,9.35
2023-04-21T13:56:04.550Z,7.47
2023-04-21T13:58:31.003Z,8.13
2023-04-21T14:00:57.845Z,9.15
2023-04-21T14:03:24.504Z,5.70
2023-04-21T14:05:51.349Z,9.38
2023-04-21T14:08:18.089Z,11.95
2023-04-21T14:10:44.598Z,11.70
2023-04-21T14:13:17.436Z,7.15
2023-04-21T14:15:53.878Z,10.05
2023-04-21T14:18:20.583Z,7.22
2023-04-21T14:20:47.225Z,8.85
2023-04-21T14:23:13.705Z,9.43
2023-04-21T14:25:40.330Z,8.95
2023-04-21T14:28:08.728Z,6.05
2023-04-21T14:30:38.481Z,7.28
2023-04-21T14:33:05.342Z,9.98
2023-04-21T14:35:32.961Z,7.05
2023-04-21T14:37:59.629Z,7.95
2023-04-21T14:40:26.157Z,9.18
2023-04-21T14:42:52.543Z,8.50
2023-04-21T14:45:19.055Z,8.23
2023-04-21T14:47:45.659Z,10.75
2023-04-21T14:50:12.205Z,10.15
2023-04-21T14:52:38.831Z,8.82
2023-04-21T14:55:05.849Z,7.38
2023-04-21T14:57:32.258Z,9.23
2023-04-21T14:59:58.719Z,10.05
2023-04-21T15:02:25.343Z,10.27
2023-04-21T15:04:52.004Z,8.32
2023-04-21T15:07:23.705Z,8.45
2023-04-21T15:09:52.127Z,8.63
2023-04-21T15:12:18.785Z,7.50
2023-04-21T15:14:45.400Z,13.30
2023-04-21T15:17:12.291Z,8.48
2023-04-21T15:19:38.812Z,11.65
2023-04-21T15:22:05.456Z,10.07
2023-04-21T15:24:31.872Z,8.90
2023-04-21T15:26:58.504Z,12.35
2023-04-21T15:29:25.264Z,9.27
2023-04-21T15:31:51.713Z,8.93
2023-04-21T15:34:18.183Z,10.02
2023-04-21T15:36:44.607Z,9.88
2023-04-21T15:39:13.944Z,10.32
2023-04-21T15:41:40.932Z,12.98
2023-04-21T15:44:07.828Z,10.50
2023-04-21T15:46:34.794Z,13.98
2023-04-21T15:49:02.834Z,12.45
2023-04-21T15:51:32.342Z,10.60
2023-04-21T15:53:58.969Z,9.75
2023-04-21T15:56:26.218Z,12.55
2023-04-21T15:58:53.310Z,12.43
2023-04-21T16:01:20.097Z,12.88
2023-04-21T16:03:47.630Z,12.73
2023-04-21T16:06:15.051Z,12.15
2023-04-21T16:08:41.476Z,13.07
2023-04-21T16:11:08.052Z,11.00
2023-04-21T16:13:34.666Z,9.88
2023-04-21T16:16:05.154Z,13.75
2023-04-21T16:18:32.203Z,11.45
2023-04-21T16:20:58.740Z,17.30
2023-04-21T16:23:27.040Z,12.02
2023-04-21T16:25:54.769Z,11.85
2023-04-21T16:28:21.318Z,12.77
2023-04-21T16:30:48.364Z,9.27
2023-04-21T16:33:14.999Z,11.43
2023-04-21T16:35:41.836Z,11.88
2023-04-21T16:38:08.676Z,12.85
2023-04-21T16:40:35.348Z,10.70
2023-04-21T16:43:02.069Z,10.13
2023-04-21T16:45:29.637Z,10.68
2023-04-21T16:47:57.125Z,9.27
2023-04-21T16:50:23.806Z,11.15
2023-04-21T16:52:50.619Z,13.60
2023-04-21T16:55:17.215Z,11.73
2023-04-21T16:57:43.922Z,9.63
2023-04-21T17:00:10.740Z,12.77
2023-04-21T17:02:37.367Z,13.32
2023-04-21T17:05:04.313Z,10.52
2023-04-21T17:07:34.212Z,10.57
2023-04-21T17:10:00.831Z,10.82
2023-04-21T17:12:27.614Z,11.23
2023-04-21T17:14:54.063Z,10.65
2023-04-21T17:17:20.581Z,12.73
2023-04-21T17:19:46.981Z,13.63
2023-04-21T17:22:14.112Z,10.25
2023-04-21T17:24:52.324Z,11.57
2023-04-21T17:27:20.001Z,12.60
2023-04-21T17:29:47.015Z,12.63
2023-04-21T17:32:14.286Z,12.40
2023-04-21T17:34:41.036Z,14.35
2023-04-21T17:37:07.514Z,11.70
2023-04-21T17:39:33.911Z,10.10
2023-04-21T17:42:02.621Z,11.32
2023-04-21T17:44:29.286Z,13.95
2023-04-21T17:46:55.895Z,10.70
2023-04-21T17:49:24.501Z,12.73
2023-04-21T17:51:51.259Z,12.07
2023-04-21T17:54:17.702Z,9.88
2023-04-21T17:56:46.137Z,12.88
2023-04-21T17:59:12.790Z,10.20
2023-04-21T18:01:39.240Z,13.20
2023-04-21T18:04:05.913Z,9.75
2023-04-21T18:06:32.478Z,12.00
2023-04-21T18:08:59.155Z,11.77
2023-04-21T18:11:25.698Z,9.05
2023-04-21T18:13:52.927Z,11.70
2023-04-21T18:16:19.490Z,9.10
2023-04-21T18:18:47.333Z,11.93
2023-04-21T18:21:14.729Z,14.38
2023-04-21T18:23:41.264Z,14.20
2023-04-21T18:26:08.427Z,12.20
2023-04-21T18:28:35.615Z,10.80
2023-04-21T18:31:02.198Z,12.70
2023-04-21T18:33:28.974Z,16.88
2023-04-21T18:35:55.619Z,10.68
2023-04-21T18:38:22.221Z,13.25
2023-04-21T18:40:48.751Z,12.35
2023-04-21T18:43:15.703Z,14.70
2023-04-21T18:45:42.168Z,11.45
2023-04-21T18:48:08.758Z,11.90
2023-04-21T18:50:39.760Z,14.48
2023-04-21T18:53:07.928Z,18.23
2023-04-21T18:55:35.916Z,13.98
2023-04-21T18:58:02.915Z,14.23
2023-04-21T19:00:30.245Z,11.90
2023-04-21T19:02:56.899Z,12.40
2023-04-21T19:05:23.710Z,12.02
2023-04-21T19:07:50.306Z,13.48
2023-04-21T19:10:17.130Z,12.40
2023-04-21T19:12:43.841Z,12.35
2023-04-21T19:15:10.604Z,11.55
2023-04-21T19:17:37.223Z,11.95
2023-04-21T19:20:04.202Z,12.18
2023-04-21T19:22:31.969Z,15.70
2023-04-21T19:24:58.467Z,17.67
2023-04-21T19:27:24.938Z,15.43
2023-04-21T19:29:51.510Z,15.25
2023-04-21T19:32:18.123Z,13.70
2023-04-21T19:34:44.742Z,15.38
2023-04-21T19:37:12.437Z,13.70
2023-04-21T19:39:39.238Z,14.82
2023-04-21T19:42:05.891Z,13.50
2023-04-21T19:44:32.442Z,14.20
2023-04-21T19:46:59.342Z,11.88
2023-04-21T19:49:26.102Z,11.70
2023-04-21T19:51:52.604Z,12.63
2023-04-21T19:54:19.102Z,14.63
2023-04-21T19:56:45.753Z,14.18
2023-04-21T19:59:12.385Z,19.38
2023-04-21T20:01:39.067Z,14.55
2023-04-21T20:04:06.769Z,12.63
2023-04-21T20:06:33.554Z,14.50
2023-04-21T20:09:00.168Z,13.57
2023-04-21T20:11:28.943Z,14.50
2023-04-21T20:13:56.030Z,14.98
2023-04-21T20:16:23.855Z,13.02
2023-04-21T20:18:50.456Z,15.93
2023-04-21T20:21:16.965Z,15.82
2023-04-21T20:23:43.497Z,12.90
2023-04-21T20:26:10.055Z,16.10
2023-04-21T20:28:36.638Z,17.65
2023-04-21T20:31:03.291Z,17.80
2023-04-21T20:33:30.412Z,15.18
2023-04-21T20:35:57.944Z,16.70
2023-04-21T20:38:24.751Z,15.73
2023-04-21T20:40:52.409Z,15.13
2023-04-21T20:43:18.952Z,15.00
2023-04-21T20:45:47.153Z,16.55
2023-04-21T20:48:14.210Z,14.68
2023-04-21T20:50:41.737Z,16.40
2023-04-21T20:53:09.818Z,14.63
2023-04-21T20:55:36.457Z,18.58
2023-04-21T20:58:04.019Z,15.93
2023-04-21T21:00:32.889Z,17.88
2023-04-21T21:02:59.813Z,20.90
2023-04-21T21:05:33.147Z,18.88
2023-04-21T21:07:59.654Z,16.50
2023-04-21T21:10:26.263Z,20.52
2023-04-21T21:12:52.713Z,16.08
2023-04-21T21:15:19.345Z,19.83
2023-04-21T21:17:45.935Z,17.77
2023-04-21T21:20:12.522Z,16.77
2023-04-21T21:22:38.981Z,19.83
2023-04-21T21:25:05.872Z,16.70
2023-04-21T21:27:32.307Z,15.50
2023-04-21T21:29:58.832Z,14.02
2023-04-21T21:32:25.808Z,14.88
2023-04-21T21:34:52.352Z,14.13
2023-04-21T21:37:19.133Z,15.32
2023-04-21T21:39:45.648Z,16.15
2023-04-21T21:42:12.122Z,19.87
2023-04-21T21:44:38.726Z,14.40
2023-04-21T21:47:05.483Z,16.73
2023-04-21T21:49:32.311Z,16.13
2023-04-21T21:51:58.926Z,15.60
2023-04-21T21:54:25.886Z,19.58
2023-04-21T21:56:52.474Z,16.00
2023-04-21T21:59:18.985Z,16.63
2023-04-21T22:01:45.554Z,15.77
2023-04-21T22:04:12.078Z,14.73
2023-04-21T22:06:39.111Z,14.67
2023-04-21T22:09:06.159Z,17.27
2023-04-21T22:11:32.635Z,14.75
2023-04-21T22:14:07.733Z,13.93
2023-04-21T22:16:37.892Z,15.32
2023-04-21T22:19:05.824Z,14.30
2023-04-21T22:21:32.337Z,19.93
2023-04-21T22:23:58.798Z,16.90
2023-04-21T22:26:25.260Z,18.47
2023-04-21T22:28:54.630Z,16.57
2023-04-21T22:31:22.520Z,18.33
2023-04-21T22:33:49.084Z,16.43
2023-04-21T22:36:15.690Z,17.13
2023-04-21T22:38:43.643Z,16.70
2023-04-21T22:41:10.873Z,18.20
2023-04-21T22:43:37.341Z,15.27
2023-04-21T22:46:03.871Z,18.30
2023-04-21T22:48:32.631Z,16.87
2023-04-21T22:50:59.644Z,22.13
2023-04-21T22:53:26.194Z,21.63
2023-04-21T22:55:52.698Z,17.93
2023-04-21T22:58:19.171Z,22.57
2023-04-21T23:00:45.681Z,19.47
2023-04-21T23:03:12.419Z,19.07
2023-04-21T23:05:39.002Z,20.03
2023-04-21T23:08:05.617Z,15.53
2023-04-21T23:10:32.216Z,17.33
2023-04-21T23:12:59.377Z,16.00
2023-04-21T23:15:27.772Z,17.90
2023-04-21T23:17:54.902Z,21.53
2023-04-21T23:20:22.226Z,21.27
2023-04-21T23:22:48.862Z,17.97
2023-04-21T23:25:15.595Z,16.97
2023-04-21T23:27:42.512Z,22.67
2023-04-21T23:30:09.562Z,18.27
2023-04-21T23:32:36.723Z,17.17
2023-04-21T23:35:03.761Z,17.63
2023-04-21T23:37:30.845Z,18.83
2023-04-21T23:39:57.485Z,17.73
2023-04-21T23:42:24.132Z,19.63
2023-04-21T23:44:50.698Z,19.47
2023-04-21T23:47:17.077Z,17.53
2023-04-21T23:49:43.718Z,18.33
2023-04-21T23:52:10.289Z,18.87
2023-04-21T23:54:36.878Z,18.90
2023-04-21T23:57:03.451Z,21.13
2023-04-21T23:59:29.950Z,17.00
